sensor_id;sensor_type;location;lat;lon;timestamp;pressure;altitude;pressure_sealevel;temperature;humidity
55418;BME280;41287;47.554;7.844;2023-01-05T00:01:33;98872.50;;;16.38;66.17
55418;BME280;41287;47.554;7.844;2023-01-05T00:03:59;98875.19;;;16.38;66.14
55418;BME280;41287;47.554;7.844;2023-01-05T00:06:24;98874.41;;;16.38;66.26
55418;BME280;41287;47.554;7.844;2023-01-05T00:08:51;98870.13;;;16.37;66.30
55418;BME280;41287;47.554;7.844;2023-01-05T00:11:19;98875.19;;;16.38;66.11
55418;BME280;41287;47.554;7.844;2023-01-05T00:14:04;98867.09;;;16.38;66.02
55418;BME280;41287;47.554;7.844;2023-01-05T00:16:48;98868.97;;;16.38;66.26
55418;BME280;41287;47.554;7.844;2023-01-05T00:19:32;98861.66;;;16.38;66.27
55418;BME280;41287;47.554;7.844;2023-01-05T00:22:21;98853.06;;;16.36;66.05
55418;BME280;41287;47.554;7.844;2023-01-05T00:25:06;98860.38;;;16.36;66.20
55418;BME280;41287;47.554;7.844;2023-01-05T00:27:37;98853.88;;;16.37;66.08
55418;BME280;41287;47.554;7.844;2023-01-05T00:30:04;98851.19;;;16.37;66.16
55418;BME280;41287;47.554;7.844;2023-01-05T00:32:29;98846.56;;;16.37;66.08
55418;BME280;41287;47.554;7.844;2023-01-05T00:34:56;98846.56;;;16.37;66.14
55418;BME280;41287;47.554;7.844;2023-01-05T00:37:32;98849.56;;;16.36;66.10
55418;BME280;41287;47.554;7.844;2023-01-05T00:39:58;98836.84;;;16.36;66.13
55418;BME280;41287;47.554;7.844;2023-01-05T00:42:23;98843.06;;;16.37;66.17
55418;BME280;41287;47.554;7.844;2023-01-05T00:44:49;98834.94;;;16.37;66.29
55418;BME280;41287;47.554;7.844;2023-01-05T00:47:14;98834.94;;;16.37;66.03
55418;BME280;41287;47.554;7.844;2023-01-05T00:49:40;98826.03;;;16.36;66.11
55418;BME280;41287;47.554;7.844;2023-01-05T00:52:06;98832.25;;;16.37;66.34
55418;BME280;41287;47.554;7.844;2023-01-05T00:54:31;98826.84;;;16.37;66.24
55418;BME280;41287;47.554;7.844;2023-01-05T00:56:57;98831.13;;;16.38;66.11
55418;BME280;41287;47.554;7.844;2023-01-05T00:59:22;98821.44;;;16.37;66.23
55418;BME280;41287;47.554;7.844;2023-01-05T01:01:50;98824.94;;;16.37;66.19
55418;BME280;41287;47.554;7.844;2023-01-05T01:04:16;98824.94;;;16.37;66.10
55418;BME280;41287;47.554;7.844;2023-01-05T01:06:42;98824.13;;;16.37;65.85
55418;BME280;41287;47.554;7.844;2023-01-05T01:09:08;98826.84;;;16.37;66.16
55418;BME280;41287;47.554;7.844;2023-01-05T01:11:34;98829.53;;;16.37;66.22
55418;BME280;41287;47.554;7.844;2023-01-05T01:13:59;98828.75;;;16.36;66.13
55418;BME280;41287;47.554;7.844;2023-01-05T01:16:25;98828.75;;;16.36;66.10
55418;BME280;41287;47.554;7.844;2023-01-05T01:18:50;98824.94;;;16.37;66.41
55418;BME280;41287;47.554;7.844;2023-01-05T01:21:16;98820.63;;;16.36;66.18
55418;BME280;41287;47.554;7.844;2023-01-05T01:23:42;98827.66;;;16.37;66.03
55418;BME280;41287;47.554;7.844;2023-01-05T01:26:10;98833.06;;;16.37;66.15
55418;BME280;41287;47.554;7.844;2023-01-05T01:28:36;98846.56;;;16.37;66.19
55418;BME280;41287;47.554;7.844;2023-01-05T01:31:02;98843.88;;;16.37;66.17
55418;BME280;41287;47.554;7.844;2023-01-05T01:33:28;98838.47;;;16.37;66.18
55418;BME280;41287;47.554;7.844;2023-01-05T01:35:54;98846.56;;;16.37;66.15
55418;BME280;41287;47.554;7.844;2023-01-05T01:38:19;98844.97;;;16.36;66.12
55418;BME280;41287;47.554;7.844;2023-01-05T01:40:46;98843.06;;;16.37;66.18
55418;BME280;41287;47.554;7.844;2023-01-05T01:43:17;98836.84;;;16.36;65.99
55418;BME280;41287;47.554;7.844;2023-01-05T01:45:43;98839.56;;;16.36;66.07
55418;BME280;41287;47.554;7.844;2023-01-05T01:48:13;98837.66;;;16.37;66.14
55418;BME280;41287;47.554;7.844;2023-01-05T01:50:45;98834.16;;;16.36;66.10
55418;BME280;41287;47.554;7.844;2023-01-05T01:53:19;98833.34;;;16.36;66.20
55418;BME280;41287;47.554;7.844;2023-01-05T01:55:45;98842.25;;;16.36;66.18
55418;BME280;41287;47.554;7.844;2023-01-05T01:58:15;98836.03;;;16.36;66.14
55418;BME280;41287;47.554;7.844;2023-01-05T02:00:41;98844.16;;;16.36;66.19
55418;BME280;41287;47.554;7.844;2023-01-05T02:03:08;98842.25;;;16.36;66.19
55418;BME280;41287;47.554;7.844;2023-01-05T02:05:34;98836.84;;;16.36;66.13
55418;BME280;41287;47.554;7.844;2023-01-05T02:08:02;98837.94;;;16.35;66.16
55418;BME280;41287;47.554;7.844;2023-01-05T02:10:56;98830.94;;;16.34;66.27
55418;BME280;41287;47.554;7.844;2023-01-05T02:32:45;98805.78;;;16.34;66.35
55418;BME280;41287;47.554;7.844;2023-01-05T02:40:36;98801.97;;;16.35;65.97
55418;BME280;41287;47.554;7.844;2023-01-05T02:43:04;98800.38;;;16.34;66.21
55418;BME280;41287;47.554;7.844;2023-01-05T02:45:30;98793.06;;;16.34;66.09
55418;BME280;41287;47.554;7.844;2023-01-05T02:47:56;98799.28;;;16.35;66.22
55418;BME280;41287;47.554;7.844;2023-01-05T02:50:41;98792.56;;;16.32;66.07
55418;BME280;41287;47.554;7.844;2023-01-05T02:55:43;98789.56;;;16.34;66.08
55418;BME280;41287;47.554;7.844;2023-01-05T02:58:15;98791.47;;;16.33;66.24
55418;BME280;41287;47.554;7.844;2023-01-05T03:00:50;98789.56;;;16.34;66.06
55418;BME280;41287;47.554;7.844;2023-01-05T03:03:25;98783.84;;;16.35;66.22
55418;BME280;41287;47.554;7.844;2023-01-05T03:06:15;98775.53;;;16.32;66.28
55418;BME280;41287;47.554;7.844;2023-01-05T03:08:50;98775.22;;;16.33;66.05
55418;BME280;41287;47.554;7.844;2023-01-05T03:11:16;98776.84;;;16.34;66.15
55418;BME280;41287;47.554;7.844;2023-01-05T03:14:15;98783.34;;;16.33;66.24
55418;BME280;41287;47.554;7.844;2023-01-05T03:16:46;98766.03;;;16.34;66.07
55418;BME280;41287;47.554;7.844;2023-01-05T03:19:15;98772.25;;;16.35;66.16
55418;BME280;41287;47.554;7.844;2023-01-05T03:22:04;98772.53;;;16.33;65.97
55418;BME280;41287;47.554;7.844;2023-01-05T03:24:48;98772.53;;;16.33;66.23
55418;BME280;41287;47.554;7.844;2023-01-05T03:27:33;98772.53;;;16.33;66.16
55418;BME280;41287;47.554;7.844;2023-01-05T03:30:18;98777.94;;;16.33;66.16
55418;BME280;41287;47.554;7.844;2023-01-05T03:33:09;98772.81;;;16.32;66.07
55418;BME280;41287;47.554;7.844;2023-01-05T03:35:58;98760.91;;;16.33;66.05
55418;BME280;41287;47.554;7.844;2023-01-05T03:38:31;98755.50;;;16.33;66.17
55418;BME280;41287;47.554;7.844;2023-01-05T03:40:59;98761.72;;;16.33;66.29
55418;BME280;41287;47.554;7.844;2023-01-05T03:43:27;98752.78;;;16.33;66.11
55418;BME280;41287;47.554;7.844;2023-01-05T03:45:55;98750.91;;;16.33;65.93
55418;BME280;41287;47.554;7.844;2023-01-05T03:48:21;98747.38;;;16.33;66.19
55418;BME280;41287;47.554;7.844;2023-01-05T03:50:48;98744.69;;;16.33;66.05
55418;BME280;41287;47.554;7.844;2023-01-05T03:53:13;98744.69;;;16.33;66.19
55418;BME280;41287;47.554;7.844;2023-01-05T03:55:41;98750.91;;;16.33;66.15
55418;BME280;41287;47.554;7.844;2023-01-05T03:58:06;98754.41;;;16.34;66.29
55418;BME280;41287;47.554;7.844;2023-01-05T04:00:32;98750.09;;;16.33;66.13
55418;BME280;41287;47.554;7.844;2023-01-05T04:02:57;98755.50;;;16.33;66.07
55418;BME280;41287;47.554;7.844;2023-01-05T04:05:23;98765.50;;;16.32;66.14
55418;BME280;41287;47.554;7.844;2023-01-05T04:07:49;98750.09;;;16.33;66.20
55418;BME280;41287;47.554;7.844;2023-01-05T04:10:14;98755.50;;;16.33;66.12
55418;BME280;41287;47.554;7.844;2023-01-05T04:12:40;98760.91;;;16.33;66.19
55418;BME280;41287;47.554;7.844;2023-01-05T04:15:06;98761.72;;;16.33;66.35
55418;BME280;41287;47.554;7.844;2023-01-05T04:17:33;98764.41;;;16.33;66.20
55418;BME280;41287;47.554;7.844;2023-01-05T04:20:01;98775.22;;;16.33;66.07
55418;BME280;41287;47.554;7.844;2023-01-05T04:22:26;98772.53;;;16.33;66.16
55418;BME280;41287;47.554;7.844;2023-01-05T04:24:51;98766.31;;;16.33;66.11
55418;BME280;41287;47.554;7.844;2023-01-05T04:27:18;98752.78;;;16.33;66.06
55418;BME280;41287;47.554;7.844;2023-01-05T04:29:44;98762.50;;;16.34;66.25
55418;BME280;41287;47.554;7.844;2023-01-05T04:32:09;98760.09;;;16.32;66.14
55418;BME280;41287;47.554;7.844;2023-01-05T04:34:34;98762.81;;;16.32;66.01
55418;BME280;41287;47.554;7.844;2023-01-05T04:37:00;98760.91;;;16.33;66.35
55418;BME280;41287;47.554;7.844;2023-01-05T04:39:25;98766.31;;;16.33;66.16
55418;BME280;41287;47.554;7.844;2023-01-05T04:41:51;98760.09;;;16.32;66.44
55418;BME280;41287;47.554;7.844;2023-01-05T04:44:16;98764.41;;;16.33;66.25
55418;BME280;41287;47.554;7.844;2023-01-05T04:46:41;98763.63;;;16.33;66.15
55418;BME280;41287;47.554;7.844;2023-01-05T04:49:09;98766.31;;;16.33;66.25
55418;BME280;41287;47.554;7.844;2023-01-05T04:51:40;98769.81;;;16.33;66.27
55418;BME280;41287;47.554;7.844;2023-01-05T04:54:06;98779.84;;;16.33;66.16
55418;BME280;41287;47.554;7.844;2023-01-05T04:56:31;98774.44;;;16.33;66.23
55418;BME280;41287;47.554;7.844;2023-01-05T04:58:58;98768.22;;;16.32;66.16
55418;BME280;41287;47.554;7.844;2023-01-05T05:01:24;98770.94;;;16.32;66.11
55418;BME280;41287;47.554;7.844;2023-01-05T05:03:50;98766.31;;;16.33;66.25
55418;BME280;41287;47.554;7.844;2023-01-05T05:06:15;98771.72;;;16.33;66.25
55418;BME280;41287;47.554;7.844;2023-01-05T05:08:41;98770.94;;;16.32;66.21
55418;BME280;41287;47.554;7.844;2023-01-05T05:11:07;98766.31;;;16.33;66.19
55418;BME280;41287;47.554;7.844;2023-01-05T05:13:32;98776.34;;;16.32;66.17
55418;BME280;41287;47.554;7.844;2023-01-05T05:15:57;98779.03;;;16.32;66.06
55418;BME280;41287;47.554;7.844;2023-01-05T05:18:23;98778.22;;;16.32;66.06
55418;BME280;41287;47.554;7.844;2023-01-05T05:20:50;98781.75;;;16.32;66.07
55418;BME280;41287;47.554;7.844;2023-01-05T05:23:16;98780.66;;;16.33;66.15
55418;BME280;41287;47.554;7.844;2023-01-05T05:25:41;98784.44;;;16.32;66.24
55418;BME280;41287;47.554;7.844;2023-01-05T05:28:06;98783.34;;;16.33;66.16
55418;BME280;41287;47.554;7.844;2023-01-05T05:30:32;98776.34;;;16.32;66.38
55418;BME280;41287;47.554;7.844;2023-01-05T05:32:59;98780.94;;;16.32;66.08
55418;BME280;41287;47.554;7.844;2023-01-05T05:35:26;98783.66;;;16.32;66.10
55418;BME280;41287;47.554;7.844;2023-01-05T05:37:51;98789.84;;;16.32;66.15
55418;BME280;41287;47.554;7.844;2023-01-05T05:40:17;98776.34;;;16.32;66.15
55418;BME280;41287;47.554;7.844;2023-01-05T05:42:44;98779.84;;;16.33;66.21
55418;BME280;41287;47.554;7.844;2023-01-05T05:45:09;98780.13;;;16.31;66.29
55418;BME280;41287;47.554;7.844;2023-01-05T05:47:35;98778.22;;;16.32;66.15
55418;BME280;41287;47.554;7.844;2023-01-05T05:50:00;98780.94;;;16.32;66.20
55418;BME280;41287;47.554;7.844;2023-01-05T05:52:25;98788.25;;;16.31;66.23
55418;BME280;41287;47.554;7.844;2023-01-05T05:54:53;98781.75;;;16.32;66.28
55418;BME280;41287;47.554;7.844;2023-01-05T05:57:21;98786.34;;;16.32;66.08
55418;BME280;41287;47.554;7.844;2023-01-05T05:59:48;98785.53;;;16.31;66.23
55418;BME280;41287;47.554;7.844;2023-01-05T06:02:14;98789.84;;;16.32;66.11
55418;BME280;41287;47.554;7.844;2023-01-05T06:04:40;98789.84;;;16.32;66.25
55418;BME280;41287;47.554;7.844;2023-01-05T06:07:06;98790.94;;;16.31;66.24
55418;BME280;41287;47.554;7.844;2023-01-05T06:09:31;98792.56;;;16.32;66.27
55418;BME280;41287;47.554;7.844;2023-01-05T06:11:58;98796.38;;;16.31;66.15
55418;BME280;41287;47.554;7.844;2023-01-05T06:14:24;98815.28;;;16.31;66.24
55418;BME280;41287;47.554;7.844;2023-01-05T06:16:49;98799.06;;;16.31;66.15
55418;BME280;41287;47.554;7.844;2023-01-05T06:19:14;98807.19;;;16.31;66.13
55418;BME280;41287;47.554;7.844;2023-01-05T06:21:40;98812.59;;;16.31;66.14
55418;BME280;41287;47.554;7.844;2023-01-05T06:24:05;98807.19;;;16.31;66.26
55418;BME280;41287;47.554;7.844;2023-01-05T06:26:31;98808.31;;;16.30;66.23
55418;BME280;41287;47.554;7.844;2023-01-05T06:28:56;98813.38;;;16.32;66.12
55418;BME280;41287;47.554;7.844;2023-01-05T06:31:21;98819.94;;;16.31;66.30
55418;BME280;41287;47.554;7.844;2023-01-05T06:33:47;98807.19;;;16.31;66.16
55418;BME280;41287;47.554;7.844;2023-01-05T06:36:12;98818.00;;;16.31;66.28
55418;BME280;41287;47.554;7.844;2023-01-05T06:38:37;98810.69;;;16.32;66.08
55418;BME280;41287;47.554;7.844;2023-01-05T06:41:03;98816.09;;;16.32;66.27
55418;BME280;41287;47.554;7.844;2023-01-05T06:43:28;98808.78;;;16.32;66.16
55418;BME280;41287;47.554;7.844;2023-01-05T06:45:55;98814.53;;;16.31;66.16
55418;BME280;41287;47.554;7.844;2023-01-05T06:48:21;98815.28;;;16.31;66.09
55418;BME280;41287;47.554;7.844;2023-01-05T06:50:46;98813.72;;;16.30;66.25
55418;BME280;41287;47.554;7.844;2023-01-05T06:53:11;98817.22;;;16.31;66.23
55418;BME280;41287;47.554;7.844;2023-01-05T06:55:37;98809.09;;;16.31;66.10
55418;BME280;41287;47.554;7.844;2023-01-05T06:58:02;98806.41;;;16.31;66.21
55418;BME280;41287;47.554;7.844;2023-01-05T07:00:28;98812.59;;;16.31;66.25
55418;BME280;41287;47.554;7.844;2023-01-05T07:02:53;98818.00;;;16.31;66.29
55418;BME280;41287;47.554;7.844;2023-01-05T07:05:19;98816.41;;;16.30;66.33
55418;BME280;41287;47.554;7.844;2023-01-05T07:07:44;98819.94;;;16.31;66.19
55418;BME280;41287;47.554;7.844;2023-01-05T07:10:10;98824.22;;;16.32;66.14
55418;BME280;41287;47.554;7.844;2023-01-05T07:12:35;98822.63;;;16.31;66.06
55418;BME280;41287;47.554;7.844;2023-01-05T07:15:07;98816.41;;;16.30;66.24
55418;BME280;41287;47.554;7.844;2023-01-05T07:17:35;98811.00;;;16.30;66.21
55418;BME280;41287;47.554;7.844;2023-01-05T07:20:02;98817.22;;;16.31;66.37
55418;BME280;41287;47.554;7.844;2023-01-05T07:22:27;98821.81;;;16.30;66.19
55418;BME280;41287;47.554;7.844;2023-01-05T07:24:55;98821.81;;;16.30;66.17
55418;BME280;41287;47.554;7.844;2023-01-05T07:27:21;98826.44;;;16.30;66.25
55418;BME280;41287;47.554;7.844;2023-01-05T07:29:48;98829.94;;;16.30;66.09
55418;BME280;41287;47.554;7.844;2023-01-05T07:32:13;98830.75;;;16.31;66.22
55418;BME280;41287;47.554;7.844;2023-01-05T07:34:39;98831.50;;;16.31;66.12
55418;BME280;41287;47.554;7.844;2023-01-05T07:37:04;98822.94;;;16.29;66.20
55418;BME280;41287;47.554;7.844;2023-01-05T07:39:30;98837.25;;;16.30;66.01
55418;BME280;41287;47.554;7.844;2023-01-05T07:41:55;98830.75;;;16.31;66.19
55418;BME280;41287;47.554;7.844;2023-01-05T07:44:20;98843.47;;;16.30;66.24
55418;BME280;41287;47.554;7.844;2023-01-05T07:46:46;98838.06;;;16.30;66.25
55418;BME280;41287;47.554;7.844;2023-01-05T07:49:11;98836.16;;;16.31;66.21
55418;BME280;41287;47.554;7.844;2023-01-05T07:51:37;98835.34;;;16.30;66.21
55418;BME280;41287;47.554;7.844;2023-01-05T07:54:02;98853.16;;;16.31;66.13
55418;BME280;41287;47.554;7.844;2023-01-05T07:56:27;98853.47;;;16.30;65.91
55418;BME280;41287;47.554;7.844;2023-01-05T07:58:53;98855.09;;;16.31;66.02
55418;BME280;41287;47.554;7.844;2023-01-05T08:01:18;98862.41;;;16.30;66.04
55418;BME280;41287;47.554;7.844;2023-01-05T08:03:43;98859.69;;;16.30;66.02
55418;BME280;41287;47.554;7.844;2023-01-05T08:06:14;98878.63;;;16.30;65.91
55418;BME280;41287;47.554;7.844;2023-01-05T08:08:40;98875.91;;;16.30;65.70
55418;BME280;41287;47.554;7.844;2023-01-05T08:11:07;98885.94;;;16.30;65.55
55418;BME280;41287;47.554;7.844;2023-01-05T08:13:36;98890.53;;;16.29;65.70
55418;BME280;41287;47.554;7.844;2023-01-05T08:16:20;98882.13;;;16.31;65.57
55418;BME280;41287;47.554;7.844;2023-01-05T08:18:48;98874.31;;;16.29;65.65
55418;BME280;41287;47.554;7.844;2023-01-05T08:21:13;98870.78;;;16.29;65.67
55418;BME280;41287;47.554;7.844;2023-01-05T08:23:39;98883.22;;;16.30;65.69
55418;BME280;41287;47.554;7.844;2023-01-05T08:26:06;98884.31;;;16.29;65.72
55418;BME280;41287;47.554;7.844;2023-01-05T08:28:34;98883.50;;;16.28;65.69
55418;BME280;41287;47.554;7.844;2023-01-05T08:31:02;98890.53;;;16.29;65.70
55418;BME280;41287;47.554;7.844;2023-01-05T08:33:28;98894.34;;;16.28;65.55
55418;BME280;41287;47.554;7.844;2023-01-05T08:35:53;98892.72;;;16.27;65.74
55418;BME280;41287;47.554;7.844;2023-01-05T08:38:20;98901.34;;;16.29;65.73
55418;BME280;41287;47.554;7.844;2023-01-05T08:40:46;98895.13;;;16.29;65.95
55418;BME280;41287;47.554;7.844;2023-01-05T08:43:12;98902.16;;;16.30;65.64
55418;BME280;41287;47.554;7.844;2023-01-05T08:45:37;98898.94;;;16.28;65.67
55418;BME280;41287;47.554;7.844;2023-01-05T08:48:02;98900.53;;;16.29;65.64
55418;BME280;41287;47.554;7.844;2023-01-05T08:50:28;98906.75;;;16.29;65.75
55418;BME280;41287;47.554;7.844;2023-01-05T08:52:54;98900.84;;;16.27;65.73
55418;BME280;41287;47.554;7.844;2023-01-05T08:55:20;98900.53;;;16.29;65.73
55418;BME280;41287;47.554;7.844;2023-01-05T08:57:45;98907.84;;;16.28;65.86
55418;BME280;41287;47.554;7.844;2023-01-05T09:00:11;98917.06;;;16.27;66.02
55418;BME280;41287;47.554;7.844;2023-01-05T09:02:37;98919.75;;;16.27;65.78
55418;BME280;41287;47.554;7.844;2023-01-05T09:05:03;98927.59;;;16.29;65.74
55418;BME280;41287;47.554;7.844;2023-01-05T09:07:28;98925.97;;;16.28;65.74
55418;BME280;41287;47.554;7.844;2023-01-05T09:09:53;98927.59;;;16.29;65.84
55418;BME280;41287;47.554;7.844;2023-01-05T09:12:18;98921.09;;;16.30;65.85
55418;BME280;41287;47.554;7.844;2023-01-05T09:14:44;98932.19;;;16.28;65.79
55418;BME280;41287;47.554;7.844;2023-01-05T09:17:09;98930.28;;;16.29;65.63
55418;BME280;41287;47.554;7.844;2023-01-05T09:19:34;98932.19;;;16.28;65.86
55418;BME280;41287;47.554;7.844;2023-01-05T09:22:00;98936.50;;;16.29;65.88
55418;BME280;41287;47.554;7.844;2023-01-05T09:24:25;98943.81;;;16.29;65.85
55418;BME280;41287;47.554;7.844;2023-01-05T09:26:50;98955.44;;;16.29;65.93
55418;BME280;41287;47.554;7.844;2023-01-05T09:29:18;98965.44;;;16.29;65.82
55418;BME280;41287;47.554;7.844;2023-01-05T09:31:43;98971.66;;;16.29;65.79
55418;BME280;41287;47.554;7.844;2023-01-05T09:34:09;98965.44;;;16.29;65.93
55418;BME280;41287;47.554;7.844;2023-01-05T09:36:35;98968.16;;;16.29;65.79
55418;BME280;41287;47.554;7.844;2023-01-05T09:39:01;98957.63;;;16.27;65.79
55418;BME280;41287;47.554;7.844;2023-01-05T09:41:39;98957.91;;;16.26;65.85
55418;BME280;41287;47.554;7.844;2023-01-05T09:44:15;98955.72;;;16.28;65.87
55418;BME280;41287;47.554;7.844;2023-01-05T09:46:53;98957.34;;;16.29;65.92
55418;BME280;41287;47.554;7.844;2023-01-05T09:49:21;98955.72;;;16.28;65.87
55418;BME280;41287;47.554;7.844;2023-01-05T09:51:49;98957.63;;;16.27;65.87
55418;BME280;41287;47.554;7.844;2023-01-05T09:54:18;98959.22;;;16.28;65.71
55418;BME280;41287;47.554;7.844;2023-01-05T09:56:45;98963.03;;;16.27;65.88
55418;BME280;41287;47.554;7.844;2023-01-05T09:59:28;98965.22;;;16.25;65.88
55418;BME280;41287;47.554;7.844;2023-01-05T10:01:55;98956.81;;;16.27;65.83
55418;BME280;41287;47.554;7.844;2023-01-05T10:04:24;98963.03;;;16.27;65.83
55418;BME280;41287;47.554;7.844;2023-01-05T10:06:57;98959.53;;;16.27;65.83
55418;BME280;41287;47.554;7.844;2023-01-05T10:09:28;98959.53;;;16.27;65.94
55418;BME280;41287;47.554;7.844;2023-01-05T10:12:03;98958.72;;;16.26;65.91
55418;BME280;41287;47.554;7.844;2023-01-05T10:14:59;98950.59;;;16.26;65.87
55418;BME280;41287;47.554;7.844;2023-01-05T10:17:27;98950.59;;;16.26;65.94
55418;BME280;41287;47.554;7.844;2023-01-05T10:19:54;98946.53;;;16.29;65.89
55418;BME280;41287;47.554;7.844;2023-01-05T10:25:10;98950.59;;;16.26;65.88
55418;BME280;41287;47.554;7.844;2023-01-05T10:27:46;98950.59;;;16.26;65.98
55418;BME280;41287;47.554;7.844;2023-01-05T10:31:00;98956.31;;;16.25;66.07
55418;BME280;41287;47.554;7.844;2023-01-05T10:36:06;98950.59;;;16.26;66.04
55418;BME280;41287;47.554;7.844;2023-01-05T10:38:54;98933.88;;;16.24;65.99
55418;BME280;41287;47.554;7.844;2023-01-05T10:47:08;98931.69;;;16.26;65.96
55418;BME280;41287;47.554;7.844;2023-01-05T10:49:34;98928.97;;;16.26;65.99
55418;BME280;41287;47.554;7.844;2023-01-05T10:52:00;98930.06;;;16.25;65.97
55418;BME280;41287;47.554;7.844;2023-01-05T10:54:34;98931.97;;;16.25;65.92
55418;BME280;41287;47.554;7.844;2023-01-05T11:00:00;98929.78;;;16.27;66.02
55418;BME280;41287;47.554;7.844;2023-01-05T11:02:28;98926.28;;;16.26;65.95
55418;BME280;41287;47.554;7.844;2023-01-05T11:05:01;98918.16;;;16.26;65.96
55418;BME280;41287;47.554;7.844;2023-01-05T11:07:27;98927.38;;;16.25;65.90
55418;BME280;41287;47.554;7.844;2023-01-05T11:09:53;98922.75;;;16.26;66.05
55418;BME280;41287;47.554;7.844;2023-01-05T11:12:20;98923.56;;;16.26;65.98
55418;BME280;41287;47.554;7.844;2023-01-05T11:14:56;98927.38;;;16.25;65.99
55418;BME280;41287;47.554;7.844;2023-01-05T11:17:24;98923.56;;;16.26;65.96
55418;BME280;41287;47.554;7.844;2023-01-05T11:19:53;98919.25;;;16.25;66.03
55418;BME280;41287;47.554;7.844;2023-01-05T11:22:33;98919.25;;;16.25;65.79
55418;BME280;41287;47.554;7.844;2023-01-05T11:25:27;98906.81;;;16.24;65.93
55418;BME280;41287;47.554;7.844;2023-01-05T11:28:14;98914.94;;;16.24;65.84
55418;BME280;41287;47.554;7.844;2023-01-05T11:31:01;98905.72;;;16.25;65.90
55418;BME280;41287;47.554;7.844;2023-01-05T11:33:29;98910.84;;;16.27;66.00
55418;BME280;41287;47.554;7.844;2023-01-05T11:35:58;98909.25;;;16.26;65.91
55418;BME280;41287;47.554;7.844;2023-01-05T11:38:26;98911.94;;;16.26;65.88
55418;BME280;41287;47.554;7.844;2023-01-05T11:40:57;98911.13;;;16.25;65.89
55418;BME280;41287;47.554;7.844;2023-01-05T11:43:24;98901.13;;;16.26;66.05
55418;BME280;41287;47.554;7.844;2023-01-05T11:46:02;98903.03;;;16.25;65.88
55418;BME280;41287;47.554;7.844;2023-01-05T11:48:30;98906.53;;;16.26;66.11
55418;BME280;41287;47.554;7.844;2023-01-05T11:50:57;98893.81;;;16.26;65.91
55418;BME280;41287;47.554;7.844;2023-01-05T11:58:44;98882.50;;;16.24;65.74
55418;BME280;41287;47.554;7.844;2023-01-05T12:04:23;98887.13;;;16.24;65.92
55418;BME280;41287;47.554;7.844;2023-01-05T12:07:07;98884.09;;;16.25;66.03
55418;BME280;41287;47.554;7.844;2023-01-05T12:09:37;98881.72;;;16.24;65.99
55418;BME280;41287;47.554;7.844;2023-01-05T12:12:22;98873.00;;;16.27;65.88
55418;BME280;41287;47.554;7.844;2023-01-05T12:15:07;98875.97;;;16.25;65.95
55418;BME280;41287;47.554;7.844;2023-01-05T12:25:55;98868.50;;;16.22;66.06
55418;BME280;41287;47.554;7.844;2023-01-05T12:28:44;98870.56;;;16.25;66.06
55418;BME280;41287;47.554;7.844;2023-01-05T12:31:28;98879.78;;;16.24;65.86
55418;BME280;41287;47.554;7.844;2023-01-05T12:34:02;98871.66;;;16.24;65.90
55418;BME280;41287;47.554;7.844;2023-01-05T12:48:22;98872.00;;;16.23;66.00
55418;BME280;41287;47.554;7.844;2023-01-05T12:51:23;98880.91;;;16.23;65.95
55418;BME280;41287;47.554;7.844;2023-01-05T12:53:50;98873.59;;;16.24;66.07
55418;BME280;41287;47.554;7.844;2023-01-05T12:56:27;98867.38;;;16.23;66.11
55418;BME280;41287;47.554;7.844;2023-01-05T13:01:30;98863.56;;;16.24;65.97
55418;BME280;41287;47.554;7.844;2023-01-05T13:04:04;98869.28;;;16.23;65.99
55418;BME280;41287;47.554;7.844;2023-01-05T13:06:38;98868.97;;;16.24;65.93
55418;BME280;41287;47.554;7.844;2023-01-05T13:09:26;98873.91;;;16.22;66.06
55418;BME280;41287;47.554;7.844;2023-01-05T13:11:55;98875.97;;;16.25;65.84
55418;BME280;41287;47.554;7.844;2023-01-05T13:14:30;98876.31;;;16.24;66.08
55418;BME280;41287;47.554;7.844;2023-01-05T13:17:00;98871.66;;;16.24;65.78
55418;BME280;41287;47.554;7.844;2023-01-05T13:19:31;98877.88;;;16.25;66.01
55418;BME280;41287;47.554;7.844;2023-01-05T13:22:02;98872.47;;;16.25;65.86
55418;BME280;41287;47.554;7.844;2023-01-05T13:24:48;98872.00;;;16.23;65.92
55418;BME280;41287;47.554;7.844;2023-01-05T13:27:15;98866.25;;;16.24;65.91
55418;BME280;41287;47.554;7.844;2023-01-05T13:29:44;98866.25;;;16.24;65.91
55418;BME280;41287;47.554;7.844;2023-01-05T13:32:23;98861.97;;;16.23;66.06
55418;BME280;41287;47.554;7.844;2023-01-05T13:35:13;98863.88;;;16.23;66.10
55418;BME280;41287;47.554;7.844;2023-01-05T13:40:53;98854.69;;;16.24;65.83
55418;BME280;41287;47.554;7.844;2023-01-05T13:48:50;98852.75;;;16.24;65.89
55418;BME280;41287;47.554;7.844;2023-01-05T13:54:36;98851.47;;;16.22;66.11
55418;BME280;41287;47.554;7.844;2023-01-05T13:57:09;98849.28;;;16.24;65.97
55418;BME280;41287;47.554;7.844;2023-01-05T13:59:37;98856.88;;;16.22;66.12
55418;BME280;41287;47.554;7.844;2023-01-05T14:02:03;98853.56;;;16.25;65.97
55418;BME280;41287;47.554;7.844;2023-01-05T14:04:32;98860.84;;;16.24;65.99
55418;BME280;41287;47.554;7.844;2023-01-05T14:07:10;98870.09;;;16.23;66.06
55418;BME280;41287;47.554;7.844;2023-01-05T14:09:42;98864.69;;;16.23;66.00
55418;BME280;41287;47.554;7.844;2023-01-05T14:20:44;98859.56;;;16.22;66.12
55418;BME280;41287;47.554;7.844;2023-01-05T14:26:00;98865.50;;;16.24;65.99
55418;BME280;41287;47.554;7.844;2023-01-05T14:36:34;98864.69;;;16.23;65.83
55418;BME280;41287;47.554;7.844;2023-01-05T14:39:04;98872.81;;;16.23;65.98
55418;BME280;41287;47.554;7.844;2023-01-05T14:41:31;98866.59;;;16.23;65.96
55418;BME280;41287;47.554;7.844;2023-01-05T14:44:00;98875.50;;;16.23;65.90
55418;BME280;41287;47.554;7.844;2023-01-05T14:46:27;98873.59;;;16.24;65.89
55418;BME280;41287;47.554;7.844;2023-01-05T14:49:08;98876.31;;;16.24;65.97
55418;BME280;41287;47.554;7.844;2023-01-05T14:51:51;98876.31;;;16.24;65.93
55418;BME280;41287;47.554;7.844;2023-01-05T14:54:33;98874.69;;;16.23;66.04
55418;BME280;41287;47.554;7.844;2023-01-05T15:00:00;98870.09;;;16.23;65.78